メインページ
METAR-TAF:

METAR-TAF

空港 :

ドゥシャンベ空港

ドゥシャンベ, タジキスタン

緯度: 38-33N, 経度: 068-47E, 海抜: 803m

現時点の気象観測

当レポートは18分前の11:00(UTC)に作成
変向風 4kt
気温 10°C
湿度 71%
気圧 1025 hPa
視程: 4300m
高度6600ftの雲はほとんどない
靄, 煙

METAR: UTDD 141100Z VRB02MPS 4300 BR FU FEW066 10/05 Q1025 R09/CLRD// NOSIG RMK QFE700/0933

時間: 16:18 (11:18 UTC)

予報

当レポートは2時間18分前の09:00(UTC)に作成
予報は14日の 10時(UTC)から 14日の 22時(UTC)まで有効
変向風 4kt
視程: 3100m
高度1100ftの雲はほとんどない
高度2000ftの雲は散在している, 積乱雲.
高度5000ftの千切れ雲あり
靄, 煙
14日の 10時(UTC)から 14日の 22時(UTC)まで一時的に
西の風 10kt
視程: 2200m
弱いにわか雨, 靄
確率 40% :
14日の 10時(UTC)から 14日の 22時(UTC)まで一時的に
視程: 1500m
激しい雷雨, 雨, 靄

TAF: UTDD 140900Z 1410/1422 VRB02MPS 3100 BR FU FEW011 SCT020CB BKN050 TEMPO 1410/1422 27005MPS 2200 -SHRA BR PROB40 TEMPO 1410/1422 1500 TSRA BR

4,000以上の空港の気象観測と天気予報(METAR報とTAF報)

利用可能な観測所は地図上に黄色い丸と赤い丸で示す。

丸の上にカーソルを重ねると観測所名を参照できる。

次にクリックすると気象観測と天気予報を参照できる。

マップの切り替え:黒色「×」印の緑ボタンをクリックして拡大、「-」印の緑ボタンをクリックして縮小、緑色の三角印をクリックして隣りの地図に切り替え


METAR-TAF: